Shelby, South Dakota
Current Conditions -  °F | °C
As of 1:55 AM on Saturday 25 Oct 2014 (Local Time) from K9V9 Reporting Station
Clear Clear  
Wind Chill: 54°   Ceiling: Unl
Heat Index: 54°   Visibility: 10mi
Dew Point: 38°   Wind: 6mph
Humidity: 54%   Direction: 360°N
Pressure: 30.09"   Gusts: NA
Location:  43.7732°N, 99.1697°W
Report Text: K9V9 250655Z AUTO 36005KT 10SM CLR 12/03 A3009 RMK AO2 T01220031
Loading
Personal Weather Stations






























Interactive Weather Map
Tropical Storm Tracking
New forecast layout! Learn more

10-Day Weather Forecast

Advertisements
Track Severe Weather on mobile